Terminal Aerodrome Forecast
Issued by NWS Cleveland, OH

Home | Current Version | Previous Version | Text Only | Print | Product List | Glossary Off
Versions: 1 2 3 4 5 6 7 8 9 10 11 12

085
FTUS41 KCLE 211730
TAFTOL
TAF
KTOL 211730Z 2118/2218 01008KT P6SM SCT040 BKN090
     FM220200 32003KT P6SM SCT080 BKN200
     FM221500 35009KT P6SM BKN035=

USA.gov is the U.S. government's official web portal to all federal, state and local government web resources and services.